sensor_id;sensor_type;location;lat;lon;timestamp;temperature;humidity
26583;DHT22;14230;45.382;10.998;2023-01-29T00:02:15;2.50;99.90
26583;DHT22;14230;45.382;10.998;2023-01-29T00:04:42;2.50;99.90
26583;DHT22;14230;45.382;10.998;2023-01-29T00:07:10;2.60;99.90
26583;DHT22;14230;45.382;10.998;2023-01-29T00:09:38;2.60;99.90
26583;DHT22;14230;45.382;10.998;2023-01-29T00:12:06;2.60;99.90
26583;DHT22;14230;45.382;10.998;2023-01-29T00:14:36;2.50;99.90
26583;DHT22;14230;45.382;10.998;2023-01-29T00:17:04;2.40;99.90
26583;DHT22;14230;45.382;10.998;2023-01-29T00:19:31;2.30;99.90
26583;DHT22;14230;45.382;10.998;2023-01-29T00:21:59;2.40;99.90
26583;DHT22;14230;45.382;10.998;2023-01-29T00:24:26;2.30;99.90
26583;DHT22;14230;45.382;10.998;2023-01-29T00:26:54;2.30;99.90
26583;DHT22;14230;45.382;10.998;2023-01-29T00:29:21;2.30;99.90
26583;DHT22;14230;45.382;10.998;2023-01-29T00:31:49;2.20;99.90
26583;DHT22;14230;45.382;10.998;2023-01-29T00:34:16;2.20;99.90
26583;DHT22;14230;45.382;10.998;2023-01-29T00:36:44;2.10;99.90
26583;DHT22;14230;45.382;10.998;2023-01-29T00:39:12;2.10;99.90
26583;DHT22;14230;45.382;10.998;2023-01-29T00:41:39;2.10;99.90
26583;DHT22;14230;45.382;10.998;2023-01-29T00:44:25;2.10;99.90
26583;DHT22;14230;45.382;10.998;2023-01-29T00:47:11;2.10;99.90
26583;DHT22;14230;45.382;10.998;2023-01-29T00:49:57;2.10;99.90
26583;DHT22;14230;45.382;10.998;2023-01-29T00:52:25;2.10;99.90
26583;DHT22;14230;45.382;10.998;2023-01-29T00:54:56;2.10;99.90
26583;DHT22;14230;45.382;10.998;2023-01-29T00:57:26;2.10;99.90
26583;DHT22;14230;45.382;10.998;2023-01-29T00:59:54;2.10;99.90
26583;DHT22;14230;45.382;10.998;2023-01-29T01:02:23;2.00;99.90
26583;DHT22;14230;45.382;10.998;2023-01-29T01:05:10;2.00;99.90
26583;DHT22;14230;45.382;10.998;2023-01-29T01:07:40;2.00;99.90
26583;DHT22;14230;45.382;10.998;2023-01-29T01:10:14;2.00;99.90
26583;DHT22;14230;45.382;10.998;2023-01-29T01:13:03;2.00;99.90
26583;DHT22;14230;45.382;10.998;2023-01-29T01:15:35;1.90;99.90
26583;DHT22;14230;45.382;10.998;2023-01-29T01:18:03;2.00;99.90
26583;DHT22;14230;45.382;10.998;2023-01-29T01:20:33;1.90;99.90
26583;DHT22;14230;45.382;10.998;2023-01-29T01:23:02;1.90;99.90
26583;DHT22;14230;45.382;10.998;2023-01-29T01:25:29;1.90;99.90
26583;DHT22;14230;45.382;10.998;2023-01-29T01:27:58;1.80;99.90
26583;DHT22;14230;45.382;10.998;2023-01-29T01:30:25;1.70;99.90
26583;DHT22;14230;45.382;10.998;2023-01-29T01:32:53;1.70;99.90
26583;DHT22;14230;45.382;10.998;2023-01-29T01:35:20;1.70;99.90
26583;DHT22;14230;45.382;10.998;2023-01-29T01:37:48;1.80;99.90
26583;DHT22;14230;45.382;10.998;2023-01-29T01:40:18;1.80;99.90
26583;DHT22;14230;45.382;10.998;2023-01-29T01:42:55;1.70;99.90
26583;DHT22;14230;45.382;10.998;2023-01-29T01:48:16;1.80;99.90
26583;DHT22;14230;45.382;10.998;2023-01-29T01:50:49;1.80;99.90
26583;DHT22;14230;45.382;10.998;2023-01-29T01:53:18;1.70;99.90
26583;DHT22;14230;45.382;10.998;2023-01-29T01:55:51;1.70;99.90
26583;DHT22;14230;45.382;10.998;2023-01-29T01:58:28;1.70;99.90
26583;DHT22;14230;45.382;10.998;2023-01-29T02:00:58;1.70;99.90
26583;DHT22;14230;45.382;10.998;2023-01-29T02:03:26;1.70;99.90
26583;DHT22;14230;45.382;10.998;2023-01-29T02:06:13;1.60;99.90
26583;DHT22;14230;45.382;10.998;2023-01-29T02:09:09;1.60;99.90
26583;DHT22;14230;45.382;10.998;2023-01-29T02:11:57;1.60;99.90
26583;DHT22;14230;45.382;10.998;2023-01-29T02:14:25;1.70;99.90
26583;DHT22;14230;45.382;10.998;2023-01-29T02:16:53;1.60;99.90
26583;DHT22;14230;45.382;10.998;2023-01-29T02:25:00;1.60;99.90
26583;DHT22;14230;45.382;10.998;2023-01-29T02:27:58;1.50;99.90
26583;DHT22;14230;45.382;10.998;2023-01-29T02:30:36;1.50;99.90
26583;DHT22;14230;45.382;10.998;2023-01-29T02:33:17;1.50;99.90
26583;DHT22;14230;45.382;10.998;2023-01-29T02:41:26;1.40;99.90
26583;DHT22;14230;45.382;10.998;2023-01-29T02:44:08;1.40;99.90
26583;DHT22;14230;45.382;10.998;2023-01-29T02:47:04;1.40;99.90
26583;DHT22;14230;45.382;10.998;2023-01-29T02:49:44;1.30;99.90
26583;DHT22;14230;45.382;10.998;2023-01-29T02:52:27;1.40;99.90
26583;DHT22;14230;45.382;10.998;2023-01-29T02:55:12;1.40;99.90
26583;DHT22;14230;45.382;10.998;2023-01-29T02:57:43;1.40;99.90
26583;DHT22;14230;45.382;10.998;2023-01-29T03:00:16;1.40;99.90
26583;DHT22;14230;45.382;10.998;2023-01-29T03:02:52;1.50;99.90
26583;DHT22;14230;45.382;10.998;2023-01-29T03:05:30;1.70;99.90
26583;DHT22;14230;45.382;10.998;2023-01-29T03:08:06;1.80;99.90
26583;DHT22;14230;45.382;10.998;2023-01-29T03:10:44;1.70;99.90
26583;DHT22;14230;45.382;10.998;2023-01-29T03:13:36;1.80;99.90
26583;DHT22;14230;45.382;10.998;2023-01-29T03:18:59;1.80;99.90
26583;DHT22;14230;45.382;10.998;2023-01-29T03:21:36;1.80;99.90
26583;DHT22;14230;45.382;10.998;2023-01-29T03:27:22;1.90;99.90
26583;DHT22;14230;45.382;10.998;2023-01-29T03:30:14;2.00;99.90
26583;DHT22;14230;45.382;10.998;2023-01-29T03:33:22;2.00;99.90
26583;DHT22;14230;45.382;10.998;2023-01-29T03:35:57;1.90;99.90
26583;DHT22;14230;45.382;10.998;2023-01-29T03:38:27;1.90;99.90
26583;DHT22;14230;45.382;10.998;2023-01-29T03:41:06;2.00;99.90
26583;DHT22;14230;45.382;10.998;2023-01-29T03:43:46;2.00;99.90
26583;DHT22;14230;45.382;10.998;2023-01-29T03:46:22;2.00;99.90
26583;DHT22;14230;45.382;10.998;2023-01-29T03:49:27;2.00;99.90
26583;DHT22;14230;45.382;10.998;2023-01-29T03:54:38;2.10;99.90
26583;DHT22;14230;45.382;10.998;2023-01-29T03:57:44;2.10;99.90
26583;DHT22;14230;45.382;10.998;2023-01-29T04:00:19;2.10;99.90
26583;DHT22;14230;45.382;10.998;2023-01-29T04:05:55;2.20;99.90
26583;DHT22;14230;45.382;10.998;2023-01-29T04:08:54;2.20;99.90
26583;DHT22;14230;45.382;10.998;2023-01-29T04:11:26;2.20;99.90
26583;DHT22;14230;45.382;10.998;2023-01-29T04:13:56;2.30;99.90
26583;DHT22;14230;45.382;10.998;2023-01-29T04:16:34;2.30;99.90
26583;DHT22;14230;45.382;10.998;2023-01-29T04:19:15;2.20;99.90
26583;DHT22;14230;45.382;10.998;2023-01-29T04:21:44;2.30;99.90
26583;DHT22;14230;45.382;10.998;2023-01-29T04:24:14;2.40;99.90
26583;DHT22;14230;45.382;10.998;2023-01-29T04:27:08;2.30;99.90
26583;DHT22;14230;45.382;10.998;2023-01-29T04:37:43;2.40;99.90
26583;DHT22;14230;45.382;10.998;2023-01-29T04:40:58;2.40;99.90
26583;DHT22;14230;45.382;10.998;2023-01-29T04:43:44;2.40;99.90
26583;DHT22;14230;45.382;10.998;2023-01-29T04:46:25;2.50;99.90
26583;DHT22;14230;45.382;10.998;2023-01-29T04:49:17;2.40;99.90
26583;DHT22;14230;45.382;10.998;2023-01-29T04:52:10;2.50;99.90
26583;DHT22;14230;45.382;10.998;2023-01-29T04:57:25;2.50;99.90
26583;DHT22;14230;45.382;10.998;2023-01-29T05:00:00;2.50;99.90
26583;DHT22;14230;45.382;10.998;2023-01-29T05:02:32;2.60;99.90
26583;DHT22;14230;45.382;10.998;2023-01-29T05:05:02;2.60;99.90
26583;DHT22;14230;45.382;10.998;2023-01-29T05:07:34;2.60;99.90
26583;DHT22;14230;45.382;10.998;2023-01-29T05:10:08;2.60;99.90
26583;DHT22;14230;45.382;10.998;2023-01-29T05:12:36;2.70;99.90
26583;DHT22;14230;45.382;10.998;2023-01-29T05:15:10;2.70;99.90
26583;DHT22;14230;45.382;10.998;2023-01-29T05:17:38;2.70;99.90
26583;DHT22;14230;45.382;10.998;2023-01-29T05:20:09;2.70;99.90
26583;DHT22;14230;45.382;10.998;2023-01-29T05:22:41;2.70;99.90
26583;DHT22;14230;45.382;10.998;2023-01-29T05:25:24;2.60;99.90
26583;DHT22;14230;45.382;10.998;2023-01-29T05:27:52;2.60;99.90
26583;DHT22;14230;45.382;10.998;2023-01-29T05:30:54;2.60;99.90
26583;DHT22;14230;45.382;10.998;2023-01-29T05:33:29;2.50;99.90
26583;DHT22;14230;45.382;10.998;2023-01-29T05:35:58;2.50;99.90
26583;DHT22;14230;45.382;10.998;2023-01-29T05:38:26;2.50;99.90
26583;DHT22;14230;45.382;10.998;2023-01-29T05:40:53;2.50;99.90
26583;DHT22;14230;45.382;10.998;2023-01-29T05:43:23;2.50;99.90
26583;DHT22;14230;45.382;10.998;2023-01-29T05:45:58;2.50;99.90
26583;DHT22;14230;45.382;10.998;2023-01-29T05:48:27;2.60;99.90
26583;DHT22;14230;45.382;10.998;2023-01-29T05:51:03;2.50;99.90
26583;DHT22;14230;45.382;10.998;2023-01-29T05:53:31;2.50;99.90
26583;DHT22;14230;45.382;10.998;2023-01-29T05:56:03;2.50;99.90
26583;DHT22;14230;45.382;10.998;2023-01-29T05:58:31;2.50;99.90
26583;DHT22;14230;45.382;10.998;2023-01-29T06:01:11;2.50;99.90
26583;DHT22;14230;45.382;10.998;2023-01-29T06:03:39;2.60;99.90
26583;DHT22;14230;45.382;10.998;2023-01-29T06:06:07;2.50;99.90
26583;DHT22;14230;45.382;10.998;2023-01-29T06:08:34;2.50;99.90
26583;DHT22;14230;45.382;10.998;2023-01-29T06:11:02;2.50;99.90
26583;DHT22;14230;45.382;10.998;2023-01-29T06:13:30;2.50;99.90
26583;DHT22;14230;45.382;10.998;2023-01-29T06:15:58;2.60;99.90
26583;DHT22;14230;45.382;10.998;2023-01-29T06:18:25;2.50;99.90
26583;DHT22;14230;45.382;10.998;2023-01-29T06:20:53;2.50;99.90
26583;DHT22;14230;45.382;10.998;2023-01-29T06:23:20;2.50;99.90
26583;DHT22;14230;45.382;10.998;2023-01-29T06:25:47;2.40;99.90
26583;DHT22;14230;45.382;10.998;2023-01-29T06:28:15;2.40;99.90
26583;DHT22;14230;45.382;10.998;2023-01-29T06:30:42;2.40;99.90
26583;DHT22;14230;45.382;10.998;2023-01-29T06:33:10;2.30;99.90
26583;DHT22;14230;45.382;10.998;2023-01-29T06:35:37;2.40;99.90
26583;DHT22;14230;45.382;10.998;2023-01-29T06:38:05;2.50;99.90
26583;DHT22;14230;45.382;10.998;2023-01-29T06:40:32;2.50;99.90
26583;DHT22;14230;45.382;10.998;2023-01-29T06:43:00;2.50;99.90
26583;DHT22;14230;45.382;10.998;2023-01-29T06:45:27;2.40;99.90
26583;DHT22;14230;45.382;10.998;2023-01-29T06:47:55;2.40;99.90
26583;DHT22;14230;45.382;10.998;2023-01-29T06:50:22;2.40;99.90
26583;DHT22;14230;45.382;10.998;2023-01-29T06:52:50;2.40;99.90
26583;DHT22;14230;45.382;10.998;2023-01-29T06:55:17;2.40;99.90
26583;DHT22;14230;45.382;10.998;2023-01-29T06:57:45;2.40;99.90
26583;DHT22;14230;45.382;10.998;2023-01-29T07:00:13;2.40;99.90
26583;DHT22;14230;45.382;10.998;2023-01-29T07:02:41;2.40;99.90
26583;DHT22;14230;45.382;10.998;2023-01-29T07:05:09;2.40;99.90
26583;DHT22;14230;45.382;10.998;2023-01-29T07:07:36;2.40;99.90
26583;DHT22;14230;45.382;10.998;2023-01-29T07:10:04;2.50;99.90
26583;DHT22;14230;45.382;10.998;2023-01-29T07:12:32;2.60;99.90
26583;DHT22;14230;45.382;10.998;2023-01-29T07:14:59;2.60;99.90
26583;DHT22;14230;45.382;10.998;2023-01-29T07:17:27;2.60;99.90
26583;DHT22;14230;45.382;10.998;2023-01-29T07:19:54;2.60;99.90
26583;DHT22;14230;45.382;10.998;2023-01-29T07:22:22;2.60;99.90
26583;DHT22;14230;45.382;10.998;2023-01-29T07:24:49;2.60;99.90
26583;DHT22;14230;45.382;10.998;2023-01-29T07:27:16;2.70;99.90
26583;DHT22;14230;45.382;10.998;2023-01-29T07:29:44;2.80;99.90
26583;DHT22;14230;45.382;10.998;2023-01-29T07:32:11;2.80;99.90
26583;DHT22;14230;45.382;10.998;2023-01-29T07:34:39;2.90;99.90
26583;DHT22;14230;45.382;10.998;2023-01-29T07:37:06;3.10;99.90
26583;DHT22;14230;45.382;10.998;2023-01-29T07:39:34;3.10;99.90
26583;DHT22;14230;45.382;10.998;2023-01-29T07:42:01;3.20;99.90
26583;DHT22;14230;45.382;10.998;2023-01-29T07:44:29;3.30;99.90
26583;DHT22;14230;45.382;10.998;2023-01-29T07:46:57;3.40;99.90
26583;DHT22;14230;45.382;10.998;2023-01-29T07:49:24;3.50;99.90
26583;DHT22;14230;45.382;10.998;2023-01-29T07:51:54;3.50;99.90
26583;DHT22;14230;45.382;10.998;2023-01-29T07:54:22;3.50;99.90
26583;DHT22;14230;45.382;10.998;2023-01-29T07:56:49;3.60;99.90
26583;DHT22;14230;45.382;10.998;2023-01-29T07:59:17;3.70;99.90
26583;DHT22;14230;45.382;10.998;2023-01-29T08:01:44;3.80;99.90
26583;DHT22;14230;45.382;10.998;2023-01-29T08:04:12;3.80;99.90
26583;DHT22;14230;45.382;10.998;2023-01-29T08:06:39;3.80;99.90
26583;DHT22;14230;45.382;10.998;2023-01-29T08:09:07;3.80;99.90
26583;DHT22;14230;45.382;10.998;2023-01-29T08:11:35;4.00;99.90
26583;DHT22;14230;45.382;10.998;2023-01-29T08:14:02;5.20;99.90
26583;DHT22;14230;45.382;10.998;2023-01-29T08:16:30;6.70;99.90
26583;DHT22;14230;45.382;10.998;2023-01-29T08:18:57;8.10;99.90
26583;DHT22;14230;45.382;10.998;2023-01-29T08:21:24;9.30;99.90
26583;DHT22;14230;45.382;10.998;2023-01-29T08:23:53;10.60;99.90
26583;DHT22;14230;45.382;10.998;2023-01-29T08:26:21;11.80;99.90
26583;DHT22;14230;45.382;10.998;2023-01-29T08:28:48;12.70;99.90
26583;DHT22;14230;45.382;10.998;2023-01-29T08:31:17;12.90;99.90
26583;DHT22;14230;45.382;10.998;2023-01-29T08:33:47;12.60;99.90
26583;DHT22;14230;45.382;10.998;2023-01-29T08:36:14;13.10;99.90
26583;DHT22;14230;45.382;10.998;2023-01-29T08:38:41;13.90;99.90
26583;DHT22;14230;45.382;10.998;2023-01-29T08:41:09;14.50;99.90
26583;DHT22;14230;45.382;10.998;2023-01-29T08:43:36;15.00;99.90
26583;DHT22;14230;45.382;10.998;2023-01-29T08:46:05;15.30;99.00
26583;DHT22;14230;45.382;10.998;2023-01-29T08:48:33;15.50;98.00
26583;DHT22;14230;45.382;10.998;2023-01-29T08:51:01;15.40;97.10
26583;DHT22;14230;45.382;10.998;2023-01-29T08:53:33;16.00;96.80
26583;DHT22;14230;45.382;10.998;2023-01-29T08:56:01;16.80;94.50
26583;DHT22;14230;45.382;10.998;2023-01-29T08:58:29;16.50;94.00
26583;DHT22;14230;45.382;10.998;2023-01-29T09:01:05;17.00;93.40
26583;DHT22;14230;45.382;10.998;2023-01-29T09:03:33;17.50;92.70
26583;DHT22;14230;45.382;10.998;2023-01-29T09:06:00;17.50;91.90
26583;DHT22;14230;45.382;10.998;2023-01-29T09:08:28;17.60;91.90
26583;DHT22;14230;45.382;10.998;2023-01-29T09:10:58;17.80;92.00
26583;DHT22;14230;45.382;10.998;2023-01-29T09:13:26;18.20;91.30
26583;DHT22;14230;45.382;10.998;2023-01-29T09:15:53;18.50;90.30
26583;DHT22;14230;45.382;10.998;2023-01-29T09:18:23;18.60;89.40
26583;DHT22;14230;45.382;10.998;2023-01-29T09:20:52;18.50;89.20
26583;DHT22;14230;45.382;10.998;2023-01-29T09:23:20;17.40;89.90
26583;DHT22;14230;45.382;10.998;2023-01-29T09:25:47;17.50;90.20
26583;DHT22;14230;45.382;10.998;2023-01-29T09:28:15;17.40;90.10
26583;DHT22;14230;45.382;10.998;2023-01-29T09:30:45;16.50;91.50
26583;DHT22;14230;45.382;10.998;2023-01-29T09:33:13;16.40;91.40
26583;DHT22;14230;45.382;10.998;2023-01-29T09:35:41;16.80;91.40
26583;DHT22;14230;45.382;10.998;2023-01-29T09:38:09;17.20;90.40
26583;DHT22;14230;45.382;10.998;2023-01-29T09:44:01;17.10;90.00
26583;DHT22;14230;45.382;10.998;2023-01-29T09:46:43;17.60;88.80
26583;DHT22;14230;45.382;10.998;2023-01-29T09:51:49;17.90;86.80
26583;DHT22;14230;45.382;10.998;2023-01-29T09:54:31;18.20;86.50
26583;DHT22;14230;45.382;10.998;2023-01-29T09:56:59;18.40;84.50
26583;DHT22;14230;45.382;10.998;2023-01-29T09:59:29;17.90;84.40
26583;DHT22;14230;45.382;10.998;2023-01-29T10:10:40;18.10;84.60
26583;DHT22;14230;45.382;10.998;2023-01-29T10:22:21;18.00;84.30
26583;DHT22;14230;45.382;10.998;2023-01-29T10:24:55;18.50;83.40
26583;DHT22;14230;45.382;10.998;2023-01-29T10:27:33;18.30;82.30
26583;DHT22;14230;45.382;10.998;2023-01-29T10:30:07;18.10;83.40
26583;DHT22;14230;45.382;10.998;2023-01-29T10:32:37;18.10;83.60
26583;DHT22;14230;45.382;10.998;2023-01-29T10:35:22;18.10;83.20
26583;DHT22;14230;45.382;10.998;2023-01-29T10:37:53;17.90;83.40
26583;DHT22;14230;45.382;10.998;2023-01-29T10:40:32;17.10;84.40
26583;DHT22;14230;45.382;10.998;2023-01-29T10:49:05;14.20;89.60
26583;DHT22;14230;45.382;10.998;2023-01-29T11:02:43;10.90;96.20
26583;DHT22;14230;45.382;10.998;2023-01-29T11:05:34;10.70;96.80
26583;DHT22;14230;45.382;10.998;2023-01-29T11:08:12;10.50;97.30
26583;DHT22;14230;45.382;10.998;2023-01-29T11:11:15;10.40;97.60
26583;DHT22;14230;45.382;10.998;2023-01-29T11:14:07;10.10;98.10
26583;DHT22;14230;45.382;10.998;2023-01-29T11:16:41;9.80;98.80
26583;DHT22;14230;45.382;10.998;2023-01-29T11:19:09;9.70;99.30
26583;DHT22;14230;45.382;10.998;2023-01-29T11:21:55;9.60;99.90
26583;DHT22;14230;45.382;10.998;2023-01-29T11:24:24;9.30;99.90
26583;DHT22;14230;45.382;10.998;2023-01-29T11:26:54;9.30;99.90
26583;DHT22;14230;45.382;10.998;2023-01-29T11:29:41;9.20;99.90
26583;DHT22;14230;45.382;10.998;2023-01-29T11:37:40;9.20;99.90
26583;DHT22;14230;45.382;10.998;2023-01-29T11:40:34;9.10;99.90
26583;DHT22;14230;45.382;10.998;2023-01-29T11:43:19;9.00;99.90
26583;DHT22;14230;45.382;10.998;2023-01-29T11:45:50;9.00;99.90
26583;DHT22;14230;45.382;10.998;2023-01-29T11:48:20;9.00;99.90
26583;DHT22;14230;45.382;10.998;2023-01-29T11:50:56;8.90;99.90
26583;DHT22;14230;45.382;10.998;2023-01-29T11:56:05;8.80;99.90
26583;DHT22;14230;45.382;10.998;2023-01-29T11:58:41;8.80;99.90
26583;DHT22;14230;45.382;10.998;2023-01-29T12:01:09;8.90;99.90
26583;DHT22;14230;45.382;10.998;2023-01-29T12:03:41;8.90;99.90
26583;DHT22;14230;45.382;10.998;2023-01-29T12:06:17;8.90;99.90
26583;DHT22;14230;45.382;10.998;2023-01-29T12:08:54;9.00;99.90
26583;DHT22;14230;45.382;10.998;2023-01-29T12:11:32;8.90;99.90
26583;DHT22;14230;45.382;10.998;2023-01-29T12:14:04;8.90;99.90
26583;DHT22;14230;45.382;10.998;2023-01-29T12:19:15;8.90;99.90
26583;DHT22;14230;45.382;10.998;2023-01-29T12:21:48;9.00;99.90
26583;DHT22;14230;45.382;10.998;2023-01-29T12:24:42;8.90;99.90
26583;DHT22;14230;45.382;10.998;2023-01-29T12:27:37;8.90;99.90
26583;DHT22;14230;45.382;10.998;2023-01-29T12:33:04;9.00;99.90
26583;DHT22;14230;45.382;10.998;2023-01-29T12:35:47;9.00;99.90
26583;DHT22;14230;45.382;10.998;2023-01-29T12:38:20;9.00;99.90
26583;DHT22;14230;45.382;10.998;2023-01-29T12:40:52;9.00;99.90
26583;DHT22;14230;45.382;10.998;2023-01-29T12:43:32;8.90;99.90
26583;DHT22;14230;45.382;10.998;2023-01-29T12:46:02;8.90;99.90
26583;DHT22;14230;45.382;10.998;2023-01-29T12:48:35;8.90;99.90
26583;DHT22;14230;45.382;10.998;2023-01-29T12:51:14;9.00;99.90
26583;DHT22;14230;45.382;10.998;2023-01-29T12:56:38;9.00;99.90
26583;DHT22;14230;45.382;10.998;2023-01-29T12:59:26;9.00;99.90
26583;DHT22;14230;45.382;10.998;2023-01-29T13:02:01;9.00;99.90
26583;DHT22;14230;45.382;10.998;2023-01-29T13:04:46;9.00;99.90
26583;DHT22;14230;45.382;10.998;2023-01-29T13:07:17;8.90;99.90
26583;DHT22;14230;45.382;10.998;2023-01-29T13:09:50;8.90;99.90
26583;DHT22;14230;45.382;10.998;2023-01-29T13:12:20;9.00;99.90
26583;DHT22;14230;45.382;10.998;2023-01-29T13:15:02;9.10;99.90
26583;DHT22;14230;45.382;10.998;2023-01-29T13:17:35;9.20;99.90
26583;DHT22;14230;45.382;10.998;2023-01-29T13:20:27;9.30;99.90
26583;DHT22;14230;45.382;10.998;2023-01-29T13:23:20;9.20;99.90
26583;DHT22;14230;45.382;10.998;2023-01-29T13:25:52;9.20;99.90
26583;DHT22;14230;45.382;10.998;2023-01-29T13:28:23;9.10;99.90
26583;DHT22;14230;45.382;10.998;2023-01-29T13:31:54;9.10;99.90
26583;DHT22;14230;45.382;10.998;2023-01-29T13:34:25;9.10;99.90
26583;DHT22;14230;45.382;10.998;2023-01-29T13:36:57;9.00;99.90
26583;DHT22;14230;45.382;10.998;2023-01-29T13:39:36;9.00;99.90
26583;DHT22;14230;45.382;10.998;2023-01-29T13:42:20;9.00;99.90
26583;DHT22;14230;45.382;10.998;2023-01-29T13:45:01;9.00;99.90
26583;DHT22;14230;45.382;10.998;2023-01-29T13:47:31;9.10;99.90
26583;DHT22;14230;45.382;10.998;2023-01-29T13:50:03;9.10;99.90
26583;DHT22;14230;45.382;10.998;2023-01-29T13:52:44;9.10;99.90
26583;DHT22;14230;45.382;10.998;2023-01-29T13:57:50;9.10;99.90
26583;DHT22;14230;45.382;10.998;2023-01-29T14:10:36;9.10;99.90
26583;DHT22;14230;45.382;10.998;2023-01-29T14:18:59;9.00;99.90
26583;DHT22;14230;45.382;10.998;2023-01-29T14:21:32;9.00;99.90
26583;DHT22;14230;45.382;10.998;2023-01-29T14:24:10;9.10;99.90
26583;DHT22;14230;45.382;10.998;2023-01-29T14:26:43;9.00;99.90
26583;DHT22;14230;45.382;10.998;2023-01-29T14:29:18;8.90;99.90
26583;DHT22;14230;45.382;10.998;2023-01-29T14:32:13;8.80;99.90
26583;DHT22;14230;45.382;10.998;2023-01-29T14:35:19;8.70;99.90
26583;DHT22;14230;45.382;10.998;2023-01-29T14:37:49;8.70;99.90
26583;DHT22;14230;45.382;10.998;2023-01-29T14:43:03;8.60;99.90
26583;DHT22;14230;45.382;10.998;2023-01-29T14:45:34;8.60;99.90
26583;DHT22;14230;45.382;10.998;2023-01-29T14:55:36;8.40;99.90
26583;DHT22;14230;45.382;10.998;2023-01-29T14:58:08;8.30;99.90
26583;DHT22;14230;45.382;10.998;2023-01-29T15:00:39;8.30;99.90
26583;DHT22;14230;45.382;10.998;2023-01-29T15:05:52;8.20;99.90
26583;DHT22;14230;45.382;10.998;2023-01-29T15:08:31;8.20;99.90
26583;DHT22;14230;45.382;10.998;2023-01-29T15:11:16;8.20;99.90
26583;DHT22;14230;45.382;10.998;2023-01-29T15:14:13;8.10;99.90
26583;DHT22;14230;45.382;10.998;2023-01-29T15:16:55;8.00;99.90
26583;DHT22;14230;45.382;10.998;2023-01-29T15:19:35;8.00;99.90
26583;DHT22;14230;45.382;10.998;2023-01-29T15:22:11;8.00;99.90
26583;DHT22;14230;45.382;10.998;2023-01-29T15:24:41;7.90;99.90
26583;DHT22;14230;45.382;10.998;2023-01-29T15:27:19;7.90;99.90
26583;DHT22;14230;45.382;10.998;2023-01-29T15:29:52;7.80;99.90
26583;DHT22;14230;45.382;10.998;2023-01-29T15:32:27;7.80;99.90
26583;DHT22;14230;45.382;10.998;2023-01-29T15:34:58;7.70;99.90
26583;DHT22;14230;45.382;10.998;2023-01-29T15:37:32;7.70;99.90
26583;DHT22;14230;45.382;10.998;2023-01-29T15:40:00;7.60;99.90
26583;DHT22;14230;45.382;10.998;2023-01-29T15:42:40;7.60;99.90
26583;DHT22;14230;45.382;10.998;2023-01-29T15:45:21;7.50;99.90
26583;DHT22;14230;45.382;10.998;2023-01-29T15:47:49;7.50;99.90
26583;DHT22;14230;45.382;10.998;2023-01-29T15:50:17;7.40;99.90
26583;DHT22;14230;45.382;10.998;2023-01-29T15:52:48;7.30;99.90
26583;DHT22;14230;45.382;10.998;2023-01-29T15:55:20;7.20;99.90
26583;DHT22;14230;45.382;10.998;2023-01-29T15:57:50;7.20;99.90
26583;DHT22;14230;45.382;10.998;2023-01-29T16:00:23;7.10;99.90
26583;DHT22;14230;45.382;10.998;2023-01-29T16:02:51;7.00;99.90
26583;DHT22;14230;45.382;10.998;2023-01-29T16:05:22;7.00;99.90
26583;DHT22;14230;45.382;10.998;2023-01-29T16:07:53;6.80;99.90
26583;DHT22;14230;45.382;10.998;2023-01-29T16:10:29;6.70;99.90
26583;DHT22;14230;45.382;10.998;2023-01-29T16:13:02;6.60;99.90
26583;DHT22;14230;45.382;10.998;2023-01-29T16:15:31;6.60;99.90
26583;DHT22;14230;45.382;10.998;2023-01-29T16:18:01;6.50;99.90
26583;DHT22;14230;45.382;10.998;2023-01-29T16:20:37;6.40;99.90
26583;DHT22;14230;45.382;10.998;2023-01-29T16:23:06;6.30;99.90
26583;DHT22;14230;45.382;10.998;2023-01-29T16:25:37;6.20;99.90
26583;DHT22;14230;45.382;10.998;2023-01-29T16:28:06;6.20;99.90
26583;DHT22;14230;45.382;10.998;2023-01-29T16:30:36;6.10;99.90
26583;DHT22;14230;45.382;10.998;2023-01-29T16:33:05;6.10;99.90
26583;DHT22;14230;45.382;10.998;2023-01-29T16:35:34;6.00;99.90
26583;DHT22;14230;45.382;10.998;2023-01-29T16:38:25;6.00;99.90
26583;DHT22;14230;45.382;10.998;2023-01-29T16:41:12;5.90;99.90
26583;DHT22;14230;45.382;10.998;2023-01-29T16:43:44;5.80;99.90
26583;DHT22;14230;45.382;10.998;2023-01-29T16:46:37;5.70;99.90
26583;DHT22;14230;45.382;10.998;2023-01-29T16:52:19;5.60;99.90
26583;DHT22;14230;45.382;10.998;2023-01-29T16:54:49;5.60;99.90
26583;DHT22;14230;45.382;10.998;2023-01-29T16:57:23;5.50;99.90
26583;DHT22;14230;45.382;10.998;2023-01-29T16:59:56;5.50;99.90
26583;DHT22;14230;45.382;10.998;2023-01-29T17:02:35;5.50;99.90
26583;DHT22;14230;45.382;10.998;2023-01-29T17:05:07;5.40;99.90
26583;DHT22;14230;45.382;10.998;2023-01-29T17:07:35;5.40;99.90
26583;DHT22;14230;45.382;10.998;2023-01-29T17:10:05;5.40;99.90
26583;DHT22;14230;45.382;10.998;2023-01-29T17:12:33;5.30;99.90
26583;DHT22;14230;45.382;10.998;2023-01-29T17:17:53;5.30;99.90
26583;DHT22;14230;45.382;10.998;2023-01-29T17:20:21;5.30;99.90
26583;DHT22;14230;45.382;10.998;2023-01-29T17:22:48;5.20;99.90
26583;DHT22;14230;45.382;10.998;2023-01-29T17:25:16;5.20;99.90
26583;DHT22;14230;45.382;10.998;2023-01-29T17:27:45;5.10;99.90
26583;DHT22;14230;45.382;10.998;2023-01-29T17:30:22;5.10;99.90
26583;DHT22;14230;45.382;10.998;2023-01-29T17:32:52;5.10;99.90
26583;DHT22;14230;45.382;10.998;2023-01-29T17:35:22;5.10;99.90
26583;DHT22;14230;45.382;10.998;2023-01-29T17:37:50;5.00;99.90
26583;DHT22;14230;45.382;10.998;2023-01-29T17:40:38;4.90;99.90
26583;DHT22;14230;45.382;10.998;2023-01-29T17:43:07;4.90;99.90
26583;DHT22;14230;45.382;10.998;2023-01-29T17:45:38;4.80;99.90
26583;DHT22;14230;45.382;10.998;2023-01-29T17:48:17;4.80;99.90
26583;DHT22;14230;45.382;10.998;2023-01-29T17:50:47;4.70;99.90
26583;DHT22;14230;45.382;10.998;2023-01-29T17:53:16;4.70;99.90
26583;DHT22;14230;45.382;10.998;2023-01-29T17:55:43;4.80;99.90
26583;DHT22;14230;45.382;10.998;2023-01-29T17:58:25;4.80;99.90
26583;DHT22;14230;45.382;10.998;2023-01-29T18:00:54;4.70;99.90
26583;DHT22;14230;45.382;10.998;2023-01-29T18:03:21;4.70;99.90
26583;DHT22;14230;45.382;10.998;2023-01-29T18:05:49;4.70;99.90
26583;DHT22;14230;45.382;10.998;2023-01-29T18:08:27;4.60;99.90
26583;DHT22;14230;45.382;10.998;2023-01-29T18:10:56;4.50;99.90
26583;DHT22;14230;45.382;10.998;2023-01-29T18:13:24;4.50;99.90
26583;DHT22;14230;45.382;10.998;2023-01-29T18:15:52;4.40;99.90
26583;DHT22;14230;45.382;10.998;2023-01-29T18:18:22;4.30;99.90
26583;DHT22;14230;45.382;10.998;2023-01-29T18:20:50;4.40;99.90
26583;DHT22;14230;45.382;10.998;2023-01-29T18:23:17;4.40;99.90